Nefterudovoz-29m — UIMI — position and weather

sailwx.info

Track history (hours):
 
Tides and Currents Weather Stations Pressure Air Temp Water Temp Dewpoint Dewpoint Depression Visibility Wind Speed Wind Dir Waves Ship Positions

Nefterudovoz-29m

Last reported at 2017-Apr-24 02:26 UTC. Time now 2017-Apr-28 06:21 UTC.
Position N 45°35' E 036°50'.

Length 119 m; draft 2.5 m.

Type: Cargo ship. MMSI: 273345300.

Date/timePositionNaut miles runAvg speedWind from/ knotsBaromVisibWave heightAir tempDewpointWater temp
2017-Apr-24 02:26N 45°35' E 036°50'3 7.6
2017-Apr-24 02:00N 45°32' E 036°48'4 7.6
2017-Apr-24 01:30N 45°29' E 036°44'4 7.5
2017-Apr-24 01:00N 45°26' E 036°42'4 7.6
2017-Apr-24 00:30N 45°22' E 036°40'4 7.2
2017-Apr-24 00:01N 45°20' E 036°36'4 7.3
2017-Apr-23 23:27N 45°19' E 036°31'3 6.7
2017-Apr-23 23:01N 45°16' E 036°29'4 7.3
2017-Apr-23 22:30N 45°12' E 036°28'4 7.2
2017-Apr-23 22:00N 45°09' E 036°29'4 7.3
2017-Apr-23 21:29N 45°05' E 036°30'2 0.1
2017-Apr-22 20:26N 45°06' E 036°29'1 1.1
2017-Apr-22 19:15N 45°07' E 036°28'0 0.0
2017-Apr-22 18:55N 45°07' E 036°28'0 0.0
2017-Apr-22 17:36N 45°07' E 036°28'0 0.0
2017-Apr-22 17:27N 45°07' E 036°28'0 0.0
2017-Apr-22 17:00N 45°07' E 036°28'0 0.0
2017-Apr-22 16:30N 45°07' E 036°28'0 0.0
2017-Apr-22 16:00N 45°07' E 036°28'0 0.0
2017-Apr-22 15:30N 45°07' E 036°28'0 0.0
2017-Apr-22 15:00N 45°07' E 036°28'0 0.0
2017-Apr-22 14:29N 45°07' E 036°28'5 5.1
2017-Apr-22 13:30N 45°12' E 036°28'3 5.8
2017-Apr-22 13:00N 45°15' E 036°28'3 5.7
2017-Apr-22 12:31N 45°18' E 036°29'3 6.0
2017-Apr-22 12:00N 45°19' E 036°33'3 6.4
2017-Apr-22 11:30N 45°20' E 036°37'3 6.1
2017-Apr-22 11:00N 45°23' E 036°40'3 6.8
2017-Apr-22 10:30N 45°26' E 036°40'4 7.3
2017-Apr-22 10:00N 45°29' E 036°38'0 0.4
2017-Apr-22 09:31N 45°30' E 036°38'0 0.0
2017-Apr-22 09:01N 45°30' E 036°38'0 0.0
2017-Apr-22 08:31N 45°30' E 036°38'0 0.0
2017-Apr-22 08:01N 45°30' E 036°38'0 0.0
2017-Apr-22 07:30N 45°30' E 036°38'0 0.0
2017-Apr-22 07:00N 45°30' E 036°38'0 0.0
2017-Apr-22 06:30N 45°30' E 036°38'0 0.0
2017-Apr-22 06:00N 45°30' E 036°38'0 0.0
2017-Apr-22 05:30N 45°30' E 036°38'0 0.0
2017-Apr-22 05:00N 45°30' E 036°38'2 3.7
2017-Apr-22 04:30N 45°30' E 036°41'2 3.7
2017-Apr-22 04:00N 45°31' E 036°43'2 4.1
2017-Apr-22 03:30N 45°33' E 036°44'2 4.0
2017-Apr-22 03:01N 45°35' E 036°45'  
2017-Apr-17 08:05N 45°39' E 036°53'1 7.9
2017-Apr-17 07:55N 45°38' E 036°52'3 7.9
2017-Apr-17 07:30N 45°35' E 036°50'4 7.9
2017-Apr-17 07:00N 45°31' E 036°47'4 8.0
2017-Apr-17 06:30N 45°28' E 036°44'4 7.9
2017-Apr-17 06:00N 45°24' E 036°42'4 7.5
2017-Apr-17 05:30N 45°21' E 036°39'4 7.9
2017-Apr-17 05:00N 45°20' E 036°34'4 7.9
2017-Apr-17 04:30N 45°18' E 036°29'4 8.2
2017-Apr-17 04:00N 45°14' E 036°29'4 8.3
2017-Apr-17 03:30N 45°09' E 036°29'4 8.1
2017-Apr-17 03:01N 45°05' E 036°30'  
Track history (hours):
 
Tides and Currents Weather Stations Pressure Air Temp Water Temp Dewpoint Dewpoint Depression Visibility Wind Speed Wind Dir Waves Ship Positions

Nefterudovoz-29m

Last reported at 2017-Apr-24 02:26 UTC. Time now 2017-Apr-28 06:21 UTC.
Position N 45°35' E 036°50'.

Length 119 m; draft 2.5 m.

Type: Cargo ship. MMSI: 273345300.

Date/timePositionNaut miles runAvg speedWind from/ knotsBaromVisibWave heightAir tempDewpointWater temp
2017-Apr-24 02:26N 45°35' E 036°50'3 7.6
2017-Apr-24 02:00N 45°32' E 036°48'4 7.6
2017-Apr-24 01:30N 45°29' E 036°44'4 7.5
2017-Apr-24 01:00N 45°26' E 036°42'4 7.6
2017-Apr-24 00:30N 45°22' E 036°40'4 7.2
2017-Apr-24 00:01N 45°20' E 036°36'4 7.3
2017-Apr-23 23:27N 45°19' E 036°31'3 6.7
2017-Apr-23 23:01N 45°16' E 036°29'4 7.3
2017-Apr-23 22:30N 45°12' E 036°28'4 7.2
2017-Apr-23 22:00N 45°09' E 036°29'4 7.3
2017-Apr-23 21:29N 45°05' E 036°30'2 0.1
2017-Apr-22 20:26N 45°06' E 036°29'1 1.1
2017-Apr-22 19:15N 45°07' E 036°28'0 0.0
2017-Apr-22 18:55N 45°07' E 036°28'0 0.0
2017-Apr-22 17:36N 45°07' E 036°28'0 0.0
2017-Apr-22 17:27N 45°07' E 036°28'0 0.0
2017-Apr-22 17:00N 45°07' E 036°28'0 0.0
2017-Apr-22 16:30N 45°07' E 036°28'0 0.0
2017-Apr-22 16:00N 45°07' E 036°28'0 0.0
2017-Apr-22 15:30N 45°07' E 036°28'0 0.0
2017-Apr-22 15:00N 45°07' E 036°28'0 0.0
2017-Apr-22 14:29N 45°07' E 036°28'5 5.1
2017-Apr-22 13:30N 45°12' E 036°28'3 5.8
2017-Apr-22 13:00N 45°15' E 036°28'3 5.7
2017-Apr-22 12:31N 45°18' E 036°29'3 6.0
2017-Apr-22 12:00N 45°19' E 036°33'3 6.4
2017-Apr-22 11:30N 45°20' E 036°37'3 6.1
2017-Apr-22 11:00N 45°23' E 036°40'3 6.8
2017-Apr-22 10:30N 45°26' E 036°40'4 7.3
2017-Apr-22 10:00N 45°29' E 036°38'0 0.4
2017-Apr-22 09:31N 45°30' E 036°38'0 0.0
2017-Apr-22 09:01N 45°30' E 036°38'0 0.0
2017-Apr-22 08:31N 45°30' E 036°38'0 0.0
2017-Apr-22 08:01N 45°30' E 036°38'0 0.0
2017-Apr-22 07:30N 45°30' E 036°38'0 0.0
2017-Apr-22 07:00N 45°30' E 036°38'0 0.0
2017-Apr-22 06:30N 45°30' E 036°38'0 0.0
2017-Apr-22 06:00N 45°30' E 036°38'0 0.0
2017-Apr-22 05:30N 45°30' E 036°38'0 0.0
2017-Apr-22 05:00N 45°30' E 036°38'2 3.7
2017-Apr-22 04:30N 45°30' E 036°41'2 3.7
2017-Apr-22 04:00N 45°31' E 036°43'2 4.1
2017-Apr-22 03:30N 45°33' E 036°44'2 4.0
2017-Apr-22 03:01N 45°35' E 036°45'  
2017-Apr-17 08:05N 45°39' E 036°53'1 7.9
2017-Apr-17 07:55N 45°38' E 036°52'3 7.9
2017-Apr-17 07:30N 45°35' E 036°50'4 7.9
2017-Apr-17 07:00N 45°31' E 036°47'4 8.0
2017-Apr-17 06:30N 45°28' E 036°44'4 7.9
2017-Apr-17 06:00N 45°24' E 036°42'4 7.5
2017-Apr-17 05:30N 45°21' E 036°39'4 7.9
2017-Apr-17 05:00N 45°20' E 036°34'4 7.9
2017-Apr-17 04:30N 45°18' E 036°29'4 8.2
2017-Apr-17 04:00N 45°14' E 036°29'4 8.3
2017-Apr-17 03:30N 45°09' E 036°29'4 8.1
2017-Apr-17 03:01N 45°05' E 036°30'  

Dump ship's entire track history